sensor_id;sensor_type;location;lat;lon;timestamp;temperature;humidity
11095;DHT22;5601;44.490;11.400;2022-09-09T00:01:59;21.40;99.90
11095;DHT22;5601;44.490;11.400;2022-09-09T00:04:30;21.40;99.90
11095;DHT22;5601;44.490;11.400;2022-09-09T00:07:03;21.40;99.90
11095;DHT22;5601;44.490;11.400;2022-09-09T00:09:38;21.40;99.90
11095;DHT22;5601;44.490;11.400;2022-09-09T00:12:11;21.50;99.90
11095;DHT22;5601;44.490;11.400;2022-09-09T00:14:47;21.50;99.90
11095;DHT22;5601;44.490;11.400;2022-09-09T00:17:23;21.60;99.90
11095;DHT22;5601;44.490;11.400;2022-09-09T00:19:58;21.60;99.90
11095;DHT22;5601;44.490;11.400;2022-09-09T00:22:29;21.70;99.90
11095;DHT22;5601;44.490;11.400;2022-09-09T00:25:06;21.70;99.90
11095;DHT22;5601;44.490;11.400;2022-09-09T00:27:41;21.50;99.90
11095;DHT22;5601;44.490;11.400;2022-09-09T00:30:15;21.20;99.90
11095;DHT22;5601;44.490;11.400;2022-09-09T00:32:46;21.20;99.90
11095;DHT22;5601;44.490;11.400;2022-09-09T00:35:22;21.10;99.90
11095;DHT22;5601;44.490;11.400;2022-09-09T00:37:53;20.90;99.90
11095;DHT22;5601;44.490;11.400;2022-09-09T00:40:29;20.70;99.90
11095;DHT22;5601;44.490;11.400;2022-09-09T00:43:19;20.60;99.90
11095;DHT22;5601;44.490;11.400;2022-09-09T00:46:13;20.60;99.90
11095;DHT22;5601;44.490;11.400;2022-09-09T00:48:52;20.70;99.90
11095;DHT22;5601;44.490;11.400;2022-09-09T00:51:29;20.60;99.90
11095;DHT22;5601;44.490;11.400;2022-09-09T00:54:15;20.70;99.90
11095;DHT22;5601;44.490;11.400;2022-09-09T00:57:00;20.60;99.90
11095;DHT22;5601;44.490;11.400;2022-09-09T00:59:36;20.50;99.90
11095;DHT22;5601;44.490;11.400;2022-09-09T01:02:15;20.40;99.90
11095;DHT22;5601;44.490;11.400;2022-09-09T01:04:47;20.30;99.90
11095;DHT22;5601;44.490;11.400;2022-09-09T01:07:16;20.30;99.90
11095;DHT22;5601;44.490;11.400;2022-09-09T01:09:56;20.20;99.90
11095;DHT22;5601;44.490;11.400;2022-09-09T01:12:30;20.20;99.90
11095;DHT22;5601;44.490;11.400;2022-09-09T01:15:07;20.10;99.90
11095;DHT22;5601;44.490;11.400;2022-09-09T01:17:49;20.10;99.90
11095;DHT22;5601;44.490;11.400;2022-09-09T01:20:21;20.10;99.90
11095;DHT22;5601;44.490;11.400;2022-09-09T01:26:13;19.90;99.90
11095;DHT22;5601;44.490;11.400;2022-09-09T01:28:43;19.70;99.90
11095;DHT22;5601;44.490;11.400;2022-09-09T01:31:15;19.70;99.90
11095;DHT22;5601;44.490;11.400;2022-09-09T01:33:44;19.70;99.90
11095;DHT22;5601;44.490;11.400;2022-09-09T01:36:15;19.70;99.90
11095;DHT22;5601;44.490;11.400;2022-09-09T01:38:44;19.70;99.90
11095;DHT22;5601;44.490;11.400;2022-09-09T01:41:13;19.60;99.90
11095;DHT22;5601;44.490;11.400;2022-09-09T01:43:41;19.60;99.90
11095;DHT22;5601;44.490;11.400;2022-09-09T01:46:10;19.60;99.90
11095;DHT22;5601;44.490;11.400;2022-09-09T01:48:38;19.60;99.90
11095;DHT22;5601;44.490;11.400;2022-09-09T01:51:07;19.70;99.90
11095;DHT22;5601;44.490;11.400;2022-09-09T01:53:35;19.70;99.90
11095;DHT22;5601;44.490;11.400;2022-09-09T01:56:11;19.60;99.90
11095;DHT22;5601;44.490;11.400;2022-09-09T01:58:51;19.60;99.90
11095;DHT22;5601;44.490;11.400;2022-09-09T02:01:26;19.50;99.90
11095;DHT22;5601;44.490;11.400;2022-09-09T02:03:57;19.50;99.90
11095;DHT22;5601;44.490;11.400;2022-09-09T02:06:28;19.50;99.90
11095;DHT22;5601;44.490;11.400;2022-09-09T02:09:00;19.50;99.90
11095;DHT22;5601;44.490;11.400;2022-09-09T02:11:29;19.50;99.90
11095;DHT22;5601;44.490;11.400;2022-09-09T02:14:01;19.50;99.90
11095;DHT22;5601;44.490;11.400;2022-09-09T02:16:32;19.50;99.90
11095;DHT22;5601;44.490;11.400;2022-09-09T02:19:06;19.50;99.90
11095;DHT22;5601;44.490;11.400;2022-09-09T02:21:35;19.50;99.90
11095;DHT22;5601;44.490;11.400;2022-09-09T02:24:05;19.50;99.90
11095;DHT22;5601;44.490;11.400;2022-09-09T02:26:37;19.50;99.90
11095;DHT22;5601;44.490;11.400;2022-09-09T02:29:09;19.40;99.90
11095;DHT22;5601;44.490;11.400;2022-09-09T02:31:39;19.40;99.90
11095;DHT22;5601;44.490;11.400;2022-09-09T02:34:09;19.40;99.90
11095;DHT22;5601;44.490;11.400;2022-09-09T02:36:40;19.40;99.90
11095;DHT22;5601;44.490;11.400;2022-09-09T02:39:08;19.30;99.90
11095;DHT22;5601;44.490;11.400;2022-09-09T02:41:39;19.20;99.90
11095;DHT22;5601;44.490;11.400;2022-09-09T02:44:11;19.10;99.90
11095;DHT22;5601;44.490;11.400;2022-09-09T02:46:55;19.00;99.90
11095;DHT22;5601;44.490;11.400;2022-09-09T02:49:31;19.00;99.90
11095;DHT22;5601;44.490;11.400;2022-09-09T02:52:03;19.00;99.90
11095;DHT22;5601;44.490;11.400;2022-09-09T02:54:33;19.10;99.90
11095;DHT22;5601;44.490;11.400;2022-09-09T02:57:05;19.10;99.90
11095;DHT22;5601;44.490;11.400;2022-09-09T02:59:35;19.30;99.90
11095;DHT22;5601;44.490;11.400;2022-09-09T03:02:03;19.30;99.90
11095;DHT22;5601;44.490;11.400;2022-09-09T03:04:31;19.30;99.90
11095;DHT22;5601;44.490;11.400;2022-09-09T03:06:59;19.20;99.90
11095;DHT22;5601;44.490;11.400;2022-09-09T03:09:26;19.10;99.90
11095;DHT22;5601;44.490;11.400;2022-09-09T03:11:53;19.00;99.90
11095;DHT22;5601;44.490;11.400;2022-09-09T03:14:21;18.90;99.90
11095;DHT22;5601;44.490;11.400;2022-09-09T03:16:52;18.80;99.90
11095;DHT22;5601;44.490;11.400;2022-09-09T03:19:20;18.80;99.90
11095;DHT22;5601;44.490;11.400;2022-09-09T03:21:48;18.80;99.90
11095;DHT22;5601;44.490;11.400;2022-09-09T03:24:15;18.80;99.90
11095;DHT22;5601;44.490;11.400;2022-09-09T03:26:43;18.80;99.90
11095;DHT22;5601;44.490;11.400;2022-09-09T03:29:11;18.80;99.90
11095;DHT22;5601;44.490;11.400;2022-09-09T03:31:39;18.80;99.90
11095;DHT22;5601;44.490;11.400;2022-09-09T03:34:08;18.70;99.90
11095;DHT22;5601;44.490;11.400;2022-09-09T03:36:36;18.60;99.90
11095;DHT22;5601;44.490;11.400;2022-09-09T03:39:03;18.60;99.90
11095;DHT22;5601;44.490;11.400;2022-09-09T03:41:31;18.60;99.90
11095;DHT22;5601;44.490;11.400;2022-09-09T03:43:58;18.60;99.90
11095;DHT22;5601;44.490;11.400;2022-09-09T03:46:26;18.60;99.90
11095;DHT22;5601;44.490;11.400;2022-09-09T03:48:53;18.60;99.90
11095;DHT22;5601;44.490;11.400;2022-09-09T03:51:22;18.60;99.90
11095;DHT22;5601;44.490;11.400;2022-09-09T03:53:50;18.70;99.90
11095;DHT22;5601;44.490;11.400;2022-09-09T03:56:17;18.70;99.90
11095;DHT22;5601;44.490;11.400;2022-09-09T03:58:47;18.70;99.90
11095;DHT22;5601;44.490;11.400;2022-09-09T04:01:14;18.70;99.90
11095;DHT22;5601;44.490;11.400;2022-09-09T04:03:43;18.60;99.90
11095;DHT22;5601;44.490;11.400;2022-09-09T04:06:12;18.70;99.90
11095;DHT22;5601;44.490;11.400;2022-09-09T04:08:42;18.70;99.90
11095;DHT22;5601;44.490;11.400;2022-09-09T04:11:10;18.80;99.90
11095;DHT22;5601;44.490;11.400;2022-09-09T04:13:38;18.80;99.90
11095;DHT22;5601;44.490;11.400;2022-09-09T04:16:06;18.80;99.90
11095;DHT22;5601;44.490;11.400;2022-09-09T04:18:34;18.70;99.90
11095;DHT22;5601;44.490;11.400;2022-09-09T04:21:02;18.60;99.90
11095;DHT22;5601;44.490;11.400;2022-09-09T04:23:30;18.60;99.90
11095;DHT22;5601;44.490;11.400;2022-09-09T04:26:01;18.70;99.90
11095;DHT22;5601;44.490;11.400;2022-09-09T04:28:31;18.70;99.90
11095;DHT22;5601;44.490;11.400;2022-09-09T04:31:04;18.70;99.90
11095;DHT22;5601;44.490;11.400;2022-09-09T04:33:32;18.70;99.90
11095;DHT22;5601;44.490;11.400;2022-09-09T04:35:59;18.70;99.90
11095;DHT22;5601;44.490;11.400;2022-09-09T04:38:27;18.60;99.90
11095;DHT22;5601;44.490;11.400;2022-09-09T04:40:55;18.60;99.90
11095;DHT22;5601;44.490;11.400;2022-09-09T04:43:24;18.60;99.90
11095;DHT22;5601;44.490;11.400;2022-09-09T04:45:56;18.60;99.90
11095;DHT22;5601;44.490;11.400;2022-09-09T04:48:25;18.60;99.90
11095;DHT22;5601;44.490;11.400;2022-09-09T04:50:56;18.60;99.90
11095;DHT22;5601;44.490;11.400;2022-09-09T04:53:24;18.60;99.90
11095;DHT22;5601;44.490;11.400;2022-09-09T04:55:53;18.60;99.90
11095;DHT22;5601;44.490;11.400;2022-09-09T04:58:20;18.70;99.90
11095;DHT22;5601;44.490;11.400;2022-09-09T05:00:52;18.80;99.90
11095;DHT22;5601;44.490;11.400;2022-09-09T05:03:19;18.90;99.90
11095;DHT22;5601;44.490;11.400;2022-09-09T05:05:47;19.00;99.90
11095;DHT22;5601;44.490;11.400;2022-09-09T05:08:14;19.00;99.90
11095;DHT22;5601;44.490;11.400;2022-09-09T05:10:42;18.90;99.90
11095;DHT22;5601;44.490;11.400;2022-09-09T05:13:09;18.70;99.90
11095;DHT22;5601;44.490;11.400;2022-09-09T05:15:37;18.60;99.90
11095;DHT22;5601;44.490;11.400;2022-09-09T05:18:07;18.40;99.90
11095;DHT22;5601;44.490;11.400;2022-09-09T05:20:34;18.40;99.90
11095;DHT22;5601;44.490;11.400;2022-09-09T05:23:02;18.50;99.90
11095;DHT22;5601;44.490;11.400;2022-09-09T05:25:29;18.60;99.90
11095;DHT22;5601;44.490;11.400;2022-09-09T05:27:58;18.80;99.90
11095;DHT22;5601;44.490;11.400;2022-09-09T05:30:26;19.00;99.90
11095;DHT22;5601;44.490;11.400;2022-09-09T05:32:56;19.10;99.90
11095;DHT22;5601;44.490;11.400;2022-09-09T05:35:24;19.30;99.90
11095;DHT22;5601;44.490;11.400;2022-09-09T05:37:52;19.40;99.90
11095;DHT22;5601;44.490;11.400;2022-09-09T05:40:19;19.50;99.90
11095;DHT22;5601;44.490;11.400;2022-09-09T05:42:47;19.50;99.90
11095;DHT22;5601;44.490;11.400;2022-09-09T05:45:15;19.60;99.90
11095;DHT22;5601;44.490;11.400;2022-09-09T05:47:43;19.70;99.90
11095;DHT22;5601;44.490;11.400;2022-09-09T05:50:11;19.80;99.90
11095;DHT22;5601;44.490;11.400;2022-09-09T05:52:41;20.00;99.90
11095;DHT22;5601;44.490;11.400;2022-09-09T05:55:09;20.10;99.90
11095;DHT22;5601;44.490;11.400;2022-09-09T05:57:37;20.30;99.90
11095;DHT22;5601;44.490;11.400;2022-09-09T06:00:06;20.50;99.90
11095;DHT22;5601;44.490;11.400;2022-09-09T06:02:33;20.60;99.90
11095;DHT22;5601;44.490;11.400;2022-09-09T06:05:02;20.80;99.90
11095;DHT22;5601;44.490;11.400;2022-09-09T06:07:30;20.90;99.90
11095;DHT22;5601;44.490;11.400;2022-09-09T06:09:59;21.00;99.90
11095;DHT22;5601;44.490;11.400;2022-09-09T06:12:27;21.10;99.90
11095;DHT22;5601;44.490;11.400;2022-09-09T06:14:55;21.30;99.90
11095;DHT22;5601;44.490;11.400;2022-09-09T06:17:23;21.50;99.90
11095;DHT22;5601;44.490;11.400;2022-09-09T06:19:50;22.70;99.90
11095;DHT22;5601;44.490;11.400;2022-09-09T06:22:18;25.20;99.90
11095;DHT22;5601;44.490;11.400;2022-09-09T06:24:46;27.30;99.90
11095;DHT22;5601;44.490;11.400;2022-09-09T06:27:15;28.90;99.90
11095;DHT22;5601;44.490;11.400;2022-09-09T06:29:42;30.00;99.90
11095;DHT22;5601;44.490;11.400;2022-09-09T06:32:10;30.60;99.90
11095;DHT22;5601;44.490;11.400;2022-09-09T06:34:38;31.30;99.90
11095;DHT22;5601;44.490;11.400;2022-09-09T06:37:06;31.70;99.90
11095;DHT22;5601;44.490;11.400;2022-09-09T06:39:34;31.70;99.90
11095;DHT22;5601;44.490;11.400;2022-09-09T06:42:01;32.00;99.90
11095;DHT22;5601;44.490;11.400;2022-09-09T06:44:31;32.50;99.90
11095;DHT22;5601;44.490;11.400;2022-09-09T06:46:59;32.60;99.90
11095;DHT22;5601;44.490;11.400;2022-09-09T06:49:27;32.50;99.90
11095;DHT22;5601;44.490;11.400;2022-09-09T06:51:54;32.60;99.90
11095;DHT22;5601;44.490;11.400;2022-09-09T06:54:22;32.70;99.90
11095;DHT22;5601;44.490;11.400;2022-09-09T06:56:49;32.40;99.90
11095;DHT22;5601;44.490;11.400;2022-09-09T06:59:16;32.20;99.90
11095;DHT22;5601;44.490;11.400;2022-09-09T07:01:45;32.00;99.90
11095;DHT22;5601;44.490;11.400;2022-09-09T07:04:13;32.00;99.90
11095;DHT22;5601;44.490;11.400;2022-09-09T07:06:42;31.70;99.90
11095;DHT22;5601;44.490;11.400;2022-09-09T07:09:12;31.10;99.90
11095;DHT22;5601;44.490;11.400;2022-09-09T07:11:43;31.00;99.90
11095;DHT22;5601;44.490;11.400;2022-09-09T07:14:11;30.00;99.90
11095;DHT22;5601;44.490;11.400;2022-09-09T07:16:39;28.40;99.90
11095;DHT22;5601;44.490;11.400;2022-09-09T07:19:09;27.10;99.90
11095;DHT22;5601;44.490;11.400;2022-09-09T07:21:36;26.30;99.90
11095;DHT22;5601;44.490;11.400;2022-09-09T07:24:05;25.80;99.90
11095;DHT22;5601;44.490;11.400;2022-09-09T07:26:36;25.60;99.90
11095;DHT22;5601;44.490;11.400;2022-09-09T07:29:03;25.50;99.90
11095;DHT22;5601;44.490;11.400;2022-09-09T07:31:33;25.50;99.90
11095;DHT22;5601;44.490;11.400;2022-09-09T07:34:01;25.60;99.90
11095;DHT22;5601;44.490;11.400;2022-09-09T07:36:31;25.70;99.90
11095;DHT22;5601;44.490;11.400;2022-09-09T07:39:00;25.60;99.90
11095;DHT22;5601;44.490;11.400;2022-09-09T07:41:29;25.60;99.90
11095;DHT22;5601;44.490;11.400;2022-09-09T07:43:57;25.70;99.90
11095;DHT22;5601;44.490;11.400;2022-09-09T07:46:26;25.80;99.90
11095;DHT22;5601;44.490;11.400;2022-09-09T07:48:55;25.90;99.90
11095;DHT22;5601;44.490;11.400;2022-09-09T07:51:24;26.10;99.90
11095;DHT22;5601;44.490;11.400;2022-09-09T07:53:55;26.10;99.90
11095;DHT22;5601;44.490;11.400;2022-09-09T07:56:24;26.30;99.90
11095;DHT22;5601;44.490;11.400;2022-09-09T07:58:53;26.40;99.90
11095;DHT22;5601;44.490;11.400;2022-09-09T08:01:23;26.40;99.90
11095;DHT22;5601;44.490;11.400;2022-09-09T08:03:54;26.50;99.90
11095;DHT22;5601;44.490;11.400;2022-09-09T08:06:21;26.40;99.90
11095;DHT22;5601;44.490;11.400;2022-09-09T08:08:51;26.40;99.90
11095;DHT22;5601;44.490;11.400;2022-09-09T08:11:22;26.70;99.90
11095;DHT22;5601;44.490;11.400;2022-09-09T08:13:51;26.90;99.90
11095;DHT22;5601;44.490;11.400;2022-09-09T08:16:20;27.20;99.90
11095;DHT22;5601;44.490;11.400;2022-09-09T08:18:49;27.20;99.90
11095;DHT22;5601;44.490;11.400;2022-09-09T08:21:19;27.30;99.90
11095;DHT22;5601;44.490;11.400;2022-09-09T08:23:47;27.50;99.90
11095;DHT22;5601;44.490;11.400;2022-09-09T08:26:16;27.60;99.90
11095;DHT22;5601;44.490;11.400;2022-09-09T08:28:47;27.70;99.90
11095;DHT22;5601;44.490;11.400;2022-09-09T08:31:17;27.70;99.90
11095;DHT22;5601;44.490;11.400;2022-09-09T08:33:45;27.90;99.90
11095;DHT22;5601;44.490;11.400;2022-09-09T08:36:14;28.00;99.90
11095;DHT22;5601;44.490;11.400;2022-09-09T08:38:42;28.10;99.90
11095;DHT22;5601;44.490;11.400;2022-09-09T08:41:22;28.10;99.90
11095;DHT22;5601;44.490;11.400;2022-09-09T08:44:03;28.10;99.90
11095;DHT22;5601;44.490;11.400;2022-09-09T08:46:40;28.20;99.90
11095;DHT22;5601;44.490;11.400;2022-09-09T08:49:20;28.30;99.90
11095;DHT22;5601;44.490;11.400;2022-09-09T08:51:54;28.50;99.90
11095;DHT22;5601;44.490;11.400;2022-09-09T08:54:24;28.50;99.90
11095;DHT22;5601;44.490;11.400;2022-09-09T08:56:55;28.60;99.90
11095;DHT22;5601;44.490;11.400;2022-09-09T08:59:24;28.60;99.90
11095;DHT22;5601;44.490;11.400;2022-09-09T09:02:00;28.50;99.90
11095;DHT22;5601;44.490;11.400;2022-09-09T09:04:54;28.50;99.90
11095;DHT22;5601;44.490;11.400;2022-09-09T09:07:32;28.60;99.90
11095;DHT22;5601;44.490;11.400;2022-09-09T09:10:05;28.80;99.90
11095;DHT22;5601;44.490;11.400;2022-09-09T09:12:40;28.60;99.90
11095;DHT22;5601;44.490;11.400;2022-09-09T09:15:18;28.60;99.90
11095;DHT22;5601;44.490;11.400;2022-09-09T09:17:47;28.80;99.90
11095;DHT22;5601;44.490;11.400;2022-09-09T09:20:18;29.00;99.90
11095;DHT22;5601;44.490;11.400;2022-09-09T09:22:52;29.10;99.90
11095;DHT22;5601;44.490;11.400;2022-09-09T09:25:23;29.20;99.90
11095;DHT22;5601;44.490;11.400;2022-09-09T09:28:02;29.20;99.90
11095;DHT22;5601;44.490;11.400;2022-09-09T09:30:36;29.30;99.90
11095;DHT22;5601;44.490;11.400;2022-09-09T09:33:14;29.10;99.90
11095;DHT22;5601;44.490;11.400;2022-09-09T09:35:42;28.60;99.90
11095;DHT22;5601;44.490;11.400;2022-09-09T09:38:16;28.50;99.90
11095;DHT22;5601;44.490;11.400;2022-09-09T09:40:49;28.70;99.90
11095;DHT22;5601;44.490;11.400;2022-09-09T09:43:24;28.80;99.90
11095;DHT22;5601;44.490;11.400;2022-09-09T09:45:54;28.80;99.90
11095;DHT22;5601;44.490;11.400;2022-09-09T09:48:24;29.00;99.90
11095;DHT22;5601;44.490;11.400;2022-09-09T09:50:53;29.10;99.90
11095;DHT22;5601;44.490;11.400;2022-09-09T09:53:23;28.90;99.90
11095;DHT22;5601;44.490;11.400;2022-09-09T09:55:55;28.50;99.90
11095;DHT22;5601;44.490;11.400;2022-09-09T09:58:25;28.50;99.90
11095;DHT22;5601;44.490;11.400;2022-09-09T10:00:54;28.40;99.90
11095;DHT22;5601;44.490;11.400;2022-09-09T10:03:24;28.20;99.90
11095;DHT22;5601;44.490;11.400;2022-09-09T10:05:52;28.10;99.90
11095;DHT22;5601;44.490;11.400;2022-09-09T10:08:20;28.00;99.90
11095;DHT22;5601;44.490;11.400;2022-09-09T10:11:05;28.00;99.90
11095;DHT22;5601;44.490;11.400;2022-09-09T10:13:40;27.90;99.90
11095;DHT22;5601;44.490;11.400;2022-09-09T10:16:29;27.70;99.90
11095;DHT22;5601;44.490;11.400;2022-09-09T10:19:03;27.60;99.90
11095;DHT22;5601;44.490;11.400;2022-09-09T10:21:53;27.60;99.90
11095;DHT22;5601;44.490;11.400;2022-09-09T10:24:39;27.80;99.90
11095;DHT22;5601;44.490;11.400;2022-09-09T10:27:16;27.90;99.90
11095;DHT22;5601;44.490;11.400;2022-09-09T10:30:02;27.70;99.90
11095;DHT22;5601;44.490;11.400;2022-09-09T10:32:46;27.60;99.90
11095;DHT22;5601;44.490;11.400;2022-09-09T10:35:25;27.60;99.90
11095;DHT22;5601;44.490;11.400;2022-09-09T10:38:17;27.70;99.90
11095;DHT22;5601;44.490;11.400;2022-09-09T10:40:58;28.00;99.90
11095;DHT22;5601;44.490;11.400;2022-09-09T10:43:46;28.10;99.90
11095;DHT22;5601;44.490;11.400;2022-09-09T10:46:26;28.20;99.90
11095;DHT22;5601;44.490;11.400;2022-09-09T10:49:10;28.50;99.90
11095;DHT22;5601;44.490;11.400;2022-09-09T10:51:48;28.60;99.90
11095;DHT22;5601;44.490;11.400;2022-09-09T10:54:30;28.60;99.90
11095;DHT22;5601;44.490;11.400;2022-09-09T10:57:03;28.80;99.90
11095;DHT22;5601;44.490;11.400;2022-09-09T10:59:36;28.80;99.90
11095;DHT22;5601;44.490;11.400;2022-09-09T11:02:12;28.40;99.90
11095;DHT22;5601;44.490;11.400;2022-09-09T11:04:50;28.20;99.90
11095;DHT22;5601;44.490;11.400;2022-09-09T11:07:26;28.40;99.90
11095;DHT22;5601;44.490;11.400;2022-09-09T11:10:01;28.40;99.90
11095;DHT22;5601;44.490;11.400;2022-09-09T11:12:31;28.70;99.90
11095;DHT22;5601;44.490;11.400;2022-09-09T14:35:25;28.50;99.90
11095;DHT22;5601;44.490;11.400;2022-09-09T14:37:52;28.60;99.90
11095;DHT22;5601;44.490;11.400;2022-09-09T14:40:21;28.50;99.90
11095;DHT22;5601;44.490;11.400;2022-09-09T14:42:48;28.50;99.90
11095;DHT22;5601;44.490;11.400;2022-09-09T14:45:16;28.30;99.90
11095;DHT22;5601;44.490;11.400;2022-09-09T14:47:43;28.10;99.90
11095;DHT22;5601;44.490;11.400;2022-09-09T14:50:11;28.00;99.90
11095;DHT22;5601;44.490;11.400;2022-09-09T14:52:41;27.80;99.90
11095;DHT22;5601;44.490;11.400;2022-09-09T14:55:08;27.70;99.90
11095;DHT22;5601;44.490;11.400;2022-09-09T14:57:37;27.60;99.90
11095;DHT22;5601;44.490;11.400;2022-09-09T15:00:07;27.60;99.90
11095;DHT22;5601;44.490;11.400;2022-09-09T15:02:34;27.50;99.90
11095;DHT22;5601;44.490;11.400;2022-09-09T15:05:02;27.30;99.90
11095;DHT22;5601;44.490;11.400;2022-09-09T15:07:30;27.10;99.90
11095;DHT22;5601;44.490;11.400;2022-09-09T15:10:01;27.10;99.90
11095;DHT22;5601;44.490;11.400;2022-09-09T15:12:29;26.90;99.90
11095;DHT22;5601;44.490;11.400;2022-09-09T15:14:56;26.40;99.90
11095;DHT22;5601;44.490;11.400;2022-09-09T15:17:24;25.80;99.90
11095;DHT22;5601;44.490;11.400;2022-09-09T15:19:53;25.30;99.90
11095;DHT22;5601;44.490;11.400;2022-09-09T15:22:20;24.60;99.90
11095;DHT22;5601;44.490;11.400;2022-09-09T15:24:49;23.90;99.90
11095;DHT22;5601;44.490;11.400;2022-09-09T15:27:19;23.30;99.90
11095;DHT22;5601;44.490;11.400;2022-09-09T15:29:46;23.10;99.90
11095;DHT22;5601;44.490;11.400;2022-09-09T15:32:14;23.00;99.90
11095;DHT22;5601;44.490;11.400;2022-09-09T15:34:42;23.10;99.90
11095;DHT22;5601;44.490;11.400;2022-09-09T15:37:10;23.10;99.90
11095;DHT22;5601;44.490;11.400;2022-09-09T15:39:39;23.10;99.90
11095;DHT22;5601;44.490;11.400;2022-09-09T15:42:08;23.10;99.90
11095;DHT22;5601;44.490;11.400;2022-09-09T15:44:41;23.10;99.90
11095;DHT22;5601;44.490;11.400;2022-09-09T15:47:10;23.10;99.90
11095;DHT22;5601;44.490;11.400;2022-09-09T15:49:39;23.00;99.90
11095;DHT22;5601;44.490;11.400;2022-09-09T15:52:08;22.90;99.90
11095;DHT22;5601;44.490;11.400;2022-09-09T15:54:36;22.90;99.90
11095;DHT22;5601;44.490;11.400;2022-09-09T15:57:06;22.80;99.90
11095;DHT22;5601;44.490;11.400;2022-09-09T15:59:34;22.80;99.90
11095;DHT22;5601;44.490;11.400;2022-09-09T16:02:04;22.80;99.90
11095;DHT22;5601;44.490;11.400;2022-09-09T16:04:32;22.70;99.90
11095;DHT22;5601;44.490;11.400;2022-09-09T16:07:02;22.60;99.90
11095;DHT22;5601;44.490;11.400;2022-09-09T16:09:31;22.60;99.90
11095;DHT22;5601;44.490;11.400;2022-09-09T16:11:58;22.60;99.90
11095;DHT22;5601;44.490;11.400;2022-09-09T16:14:27;22.60;99.90
11095;DHT22;5601;44.490;11.400;2022-09-09T16:16:54;22.60;99.90
11095;DHT22;5601;44.490;11.400;2022-09-09T16:19:23;22.60;99.90
11095;DHT22;5601;44.490;11.400;2022-09-09T16:21:51;22.50;99.90
11095;DHT22;5601;44.490;11.400;2022-09-09T16:24:19;22.40;99.90
11095;DHT22;5601;44.490;11.400;2022-09-09T16:26:50;22.30;99.90
11095;DHT22;5601;44.490;11.400;2022-09-09T16:29:18;22.30;99.90
11095;DHT22;5601;44.490;11.400;2022-09-09T16:31:47;22.30;99.90
11095;DHT22;5601;44.490;11.400;2022-09-09T16:34:16;22.30;99.90
11095;DHT22;5601;44.490;11.400;2022-09-09T16:36:46;22.40;99.90
11095;DHT22;5601;44.490;11.400;2022-09-09T16:39:15;22.50;99.90
11095;DHT22;5601;44.490;11.400;2022-09-09T16:41:44;22.50;99.90
11095;DHT22;5601;44.490;11.400;2022-09-09T16:44:14;22.60;99.90
11095;DHT22;5601;44.490;11.400;2022-09-09T16:46:45;22.60;99.90
11095;DHT22;5601;44.490;11.400;2022-09-09T16:49:14;22.60;99.90
11095;DHT22;5601;44.490;11.400;2022-09-09T16:51:43;22.40;99.90
11095;DHT22;5601;44.490;11.400;2022-09-09T16:54:15;22.40;99.90
11095;DHT22;5601;44.490;11.400;2022-09-09T16:56:44;22.40;99.90
11095;DHT22;5601;44.490;11.400;2022-09-09T16:59:13;22.30;99.90
11095;DHT22;5601;44.490;11.400;2022-09-09T17:01:42;22.30;99.90
11095;DHT22;5601;44.490;11.400;2022-09-09T17:04:12;22.20;99.90
11095;DHT22;5601;44.490;11.400;2022-09-09T17:06:45;22.20;99.90
11095;DHT22;5601;44.490;11.400;2022-09-09T17:09:14;22.20;99.90
11095;DHT22;5601;44.490;11.400;2022-09-09T17:11:42;22.20;99.90
11095;DHT22;5601;44.490;11.400;2022-09-09T17:14:14;22.10;99.90
11095;DHT22;5601;44.490;11.400;2022-09-09T17:16:43;22.10;99.90
11095;DHT22;5601;44.490;11.400;2022-09-09T17:19:10;22.10;99.90
11095;DHT22;5601;44.490;11.400;2022-09-09T17:21:38;22.10;99.90
11095;DHT22;5601;44.490;11.400;2022-09-09T17:24:06;22.10;99.90
11095;DHT22;5601;44.490;11.400;2022-09-09T17:26:36;22.00;99.90
11095;DHT22;5601;44.490;11.400;2022-09-09T17:29:03;22.00;99.90
11095;DHT22;5601;44.490;11.400;2022-09-09T17:31:32;21.90;99.90
11095;DHT22;5601;44.490;11.400;2022-09-09T17:33:59;21.80;99.90
11095;DHT22;5601;44.490;11.400;2022-09-09T17:36:29;21.80;99.90
11095;DHT22;5601;44.490;11.400;2022-09-09T17:38:58;21.80;99.90
11095;DHT22;5601;44.490;11.400;2022-09-09T17:41:28;21.80;99.90
11095;DHT22;5601;44.490;11.400;2022-09-09T17:43:57;21.70;99.90
11095;DHT22;5601;44.490;11.400;2022-09-09T17:46:25;21.70;99.90
11095;DHT22;5601;44.490;11.400;2022-09-09T17:48:56;21.70;99.90
11095;DHT22;5601;44.490;11.400;2022-09-09T17:51:25;21.60;99.90
11095;DHT22;5601;44.490;11.400;2022-09-09T17:53:57;21.60;99.90
11095;DHT22;5601;44.490;11.400;2022-09-09T17:56:26;21.50;99.90
11095;DHT22;5601;44.490;11.400;2022-09-09T17:58:58;21.50;99.90
11095;DHT22;5601;44.490;11.400;2022-09-09T18:01:27;21.50;99.90
11095;DHT22;5601;44.490;11.400;2022-09-09T18:03:55;21.40;99.90
11095;DHT22;5601;44.490;11.400;2022-09-09T18:06:25;21.40;99.90
11095;DHT22;5601;44.490;11.400;2022-09-09T18:08:55;21.40;99.90
11095;DHT22;5601;44.490;11.400;2022-09-09T18:11:25;21.30;99.90
11095;DHT22;5601;44.490;11.400;2022-09-09T18:13:55;21.30;99.90
11095;DHT22;5601;44.490;11.400;2022-09-09T18:16:24;21.30;99.90
11095;DHT22;5601;44.490;11.400;2022-09-09T18:18:54;21.20;99.90
11095;DHT22;5601;44.490;11.400;2022-09-09T18:21:24;21.20;99.90
11095;DHT22;5601;44.490;11.400;2022-09-09T18:23:52;21.20;99.90
11095;DHT22;5601;44.490;11.400;2022-09-09T18:26:21;21.20;99.90
11095;DHT22;5601;44.490;11.400;2022-09-09T18:28:51;21.20;99.90
11095;DHT22;5601;44.490;11.400;2022-09-09T18:31:21;21.10;99.90
11095;DHT22;5601;44.490;11.400;2022-09-09T18:33:51;21.20;99.90
11095;DHT22;5601;44.490;11.400;2022-09-09T18:36:21;21.20;99.90
11095;DHT22;5601;44.490;11.400;2022-09-09T18:38:50;21.20;99.90
11095;DHT22;5601;44.490;11.400;2022-09-09T18:41:20;21.20;99.90
11095;DHT22;5601;44.490;11.400;2022-09-09T18:43:49;21.20;99.90
11095;DHT22;5601;44.490;11.400;2022-09-09T18:46:17;21.20;99.90
11095;DHT22;5601;44.490;11.400;2022-09-09T18:48:46;21.20;99.90
11095;DHT22;5601;44.490;11.400;2022-09-09T18:51:20;21.20;99.90
11095;DHT22;5601;44.490;11.400;2022-09-09T18:53:49;21.30;99.90
11095;DHT22;5601;44.490;11.400;2022-09-09T18:56:17;21.30;99.90
11095;DHT22;5601;44.490;11.400;2022-09-09T18:58:45;21.30;99.90
11095;DHT22;5601;44.490;11.400;2022-09-09T19:01:14;21.30;99.90
11095;DHT22;5601;44.490;11.400;2022-09-09T19:03:42;21.30;99.90
11095;DHT22;5601;44.490;11.400;2022-09-09T19:06:11;21.30;99.90
11095;DHT22;5601;44.490;11.400;2022-09-09T19:08:43;21.40;99.90
11095;DHT22;5601;44.490;11.400;2022-09-09T19:11:11;21.40;99.90
11095;DHT22;5601;44.490;11.400;2022-09-09T19:13:41;21.40;99.90
11095;DHT22;5601;44.490;11.400;2022-09-09T19:16:11;21.50;99.90